createdAt,value
2022-12-06T00:02:04.016Z,7.88
2022-12-06T00:04:49.889Z,7.35
2022-12-06T00:07:37.505Z,7.90
2022-12-06T00:10:23.738Z,7.32
2022-12-06T00:13:09.724Z,6.93
2022-12-06T00:15:55.680Z,6.95
2022-12-06T00:18:42.899Z,7.32
2022-12-06T00:21:31.458Z,6.60
2022-12-06T00:24:20.473Z,6.40
2022-12-06T00:27:06.170Z,6.82
2022-12-06T00:29:51.950Z,7.05
2022-12-06T00:32:38.264Z,6.88
2022-12-06T00:35:24.338Z,6.38
2022-12-06T00:38:10.418Z,6.38
2022-12-06T00:41:01.851Z,6.55
2022-12-06T00:43:48.271Z,6.60
2022-12-06T00:46:35.592Z,6.50
2022-12-06T00:49:21.181Z,6.18
2022-12-06T00:52:07.432Z,6.32
2022-12-06T00:54:53.602Z,6.63
2022-12-06T00:57:40.827Z,6.05
2022-12-06T01:00:27.456Z,6.60
2022-12-06T01:03:13.447Z,6.35
2022-12-06T01:06:04.212Z,6.25
2022-12-06T01:08:50.480Z,5.95
2022-12-06T01:11:37.535Z,6.25
2022-12-06T01:14:24.946Z,5.53
2022-12-06T01:17:10.865Z,6.25
2022-12-06T01:19:56.586Z,6.53
2022-12-06T01:22:42.467Z,6.50
2022-12-06T01:25:30.615Z,6.32
2022-12-06T01:28:18.985Z,6.60
2022-12-06T01:31:09.393Z,6.85
2022-12-06T01:33:55.004Z,6.97
2022-12-06T01:36:40.453Z,6.97
2022-12-06T01:39:26.589Z,6.55
2022-12-06T01:42:13.352Z,7.15
2022-12-06T01:44:59.486Z,6.60
2022-12-06T01:47:46.899Z,6.95
2022-12-06T01:50:32.962Z,7.22
2022-12-06T01:53:25.298Z,6.65
2022-12-06T01:56:12.640Z,7.00
2022-12-06T01:58:59.767Z,7.25
2022-12-06T02:01:46.797Z,6.90
2022-12-06T02:04:34.791Z,7.35
2022-12-06T02:07:22.288Z,7.25
2022-12-06T02:10:09.152Z,7.30
2022-12-06T02:12:57.576Z,6.72
2022-12-06T02:15:52.011Z,7.30
2022-12-06T02:18:47.016Z,7.72
2022-12-06T02:21:42.989Z,7.90
2022-12-06T02:24:43.051Z,7.18
2022-12-06T02:27:50.048Z,6.90
2022-12-06T02:30:58.447Z,6.90
2022-12-06T02:33:48.762Z,7.30
2022-12-06T02:36:40.501Z,7.55
2022-12-06T02:39:34.578Z,6.45
2022-12-06T02:42:24.608Z,7.75
2022-12-06T02:45:14.268Z,6.90
2022-12-06T02:48:04.192Z,7.10
2022-12-06T02:50:56.327Z,7.55
2022-12-06T02:53:45.704Z,7.25
2022-12-06T02:56:33.017Z,7.70
2022-12-06T02:59:18.468Z,7.15
2022-12-06T03:02:09.675Z,7.85
2022-12-06T03:05:07.093Z,6.65
2022-12-06T03:07:53.604Z,7.28
2022-12-06T03:10:45.150Z,6.72
2022-12-06T03:13:35.876Z,6.63
2022-12-06T03:16:28.300Z,6.82
2022-12-06T03:19:19.126Z,6.65
2022-12-06T03:22:09.253Z,6.85
2022-12-06T03:24:56.639Z,6.30
2022-12-06T03:27:43.725Z,6.30
2022-12-06T03:30:33.047Z,6.53
2022-12-06T03:33:22.705Z,6.47
2022-12-06T03:36:10.657Z,6.75
2022-12-06T03:39:00.264Z,6.38
2022-12-06T03:41:51.389Z,6.50
2022-12-06T03:44:37.685Z,6.82
2022-12-06T03:47:31.358Z,6.32
2022-12-06T03:50:20.830Z,6.35
2022-12-06T03:53:06.662Z,5.72
2022-12-06T03:55:54.308Z,5.82
2022-12-06T03:58:40.231Z,6.20
2022-12-06T04:01:25.783Z,6.32
2022-12-06T04:04:11.691Z,6.43
2022-12-06T04:06:57.776Z,6.38
2022-12-06T04:10:02.760Z,6.35
2022-12-06T04:13:01.724Z,5.13
2022-12-06T04:15:47.570Z,5.53
2022-12-06T04:18:32.924Z,5.63
2022-12-06T04:21:36.460Z,5.85
2022-12-06T04:24:22.161Z,5.97
2022-12-06T04:27:26.466Z,7.15
2022-12-06T04:30:32.431Z,8.63
2022-12-06T04:33:37.004Z,9.55
2022-12-06T04:36:41.116Z,10.32
2022-12-06T04:39:27.142Z,10.23
2022-12-06T04:42:32.126Z,10.80
2022-12-06T04:45:18.940Z,9.57
2022-12-06T04:48:05.259Z,9.55
2022-12-06T04:50:51.513Z,8.32
2022-12-06T04:53:37.325Z,7.60
2022-12-06T04:56:22.794Z,6.97
2022-12-06T04:59:08.278Z,6.07
2022-12-06T05:01:56.450Z,6.10
2022-12-06T05:04:42.265Z,5.88
2022-12-06T05:07:28.317Z,5.35
2022-12-06T05:10:14.251Z,5.50
2022-12-06T05:13:00.867Z,5.95
2022-12-06T05:15:50.632Z,5.93
2022-12-06T05:18:38.046Z,5.10
2022-12-06T05:21:24.963Z,5.22
2022-12-06T05:24:10.578Z,5.00
2022-12-06T05:26:56.173Z,5.00
2022-12-06T05:29:42.274Z,5.25
2022-12-06T05:32:28.033Z,5.15
2022-12-06T05:35:15.332Z,4.82
2022-12-06T05:38:00.836Z,5.22
2022-12-06T05:40:46.659Z,4.70
2022-12-06T05:43:32.406Z,4.13
2022-12-06T05:46:18.485Z,4.57
2022-12-06T05:49:04.614Z,5.00
2022-12-06T05:51:51.581Z,4.95
2022-12-06T05:54:37.110Z,4.60
2022-12-06T05:57:22.550Z,6.15
2022-12-06T06:00:09.637Z,4.80
2022-12-06T06:02:55.441Z,5.03
2022-12-06T06:05:46.024Z,4.22
2022-12-06T06:08:33.283Z,4.57
2022-12-06T06:11:18.964Z,4.78
2022-12-06T06:14:04.767Z,5.07
2022-12-06T06:16:52.271Z,4.97
2022-12-06T06:19:38.261Z,4.75
2022-12-06T06:22:24.598Z,4.55
2022-12-06T06:25:11.697Z,4.93
2022-12-06T06:27:57.368Z,4.70
2022-12-06T06:30:43.093Z,4.72
2022-12-06T06:33:29.122Z,4.15
2022-12-06T06:36:14.890Z,4.65
2022-12-06T06:39:00.522Z,4.82
2022-12-06T06:41:47.852Z,4.65
2022-12-06T06:44:33.557Z,4.65
2022-12-06T06:47:19.253Z,4.63
2022-12-06T06:50:05.719Z,5.72
2022-12-06T06:52:51.427Z,11.02
2022-12-06T06:55:37.611Z,8.02
2022-12-06T06:58:25.516Z,7.32
2022-12-06T07:01:17.512Z,5.07
2022-12-06T07:04:03.182Z,5.50
2022-12-06T07:06:48.987Z,5.13
2022-12-06T07:09:35.117Z,5.00
2022-12-06T07:12:20.928Z,5.20
2022-12-06T07:15:09.492Z,4.70
2022-12-06T07:17:55.234Z,4.80
2022-12-06T07:20:41.270Z,4.88
2022-12-06T07:23:27.081Z,5.43
2022-12-06T07:26:14.160Z,5.30
2022-12-06T07:29:00.573Z,12.77
2022-12-06T07:31:47.441Z,6.32
2022-12-06T07:34:33.582Z,5.55
2022-12-06T07:37:20.578Z,4.95
2022-12-06T07:40:08.118Z,4.97
2022-12-06T07:43:12.502Z,4.65
2022-12-06T07:45:58.156Z,4.78
2022-12-06T07:48:45.565Z,5.53
2022-12-06T07:51:31.996Z,5.45
2022-12-06T07:54:18.123Z,5.97
2022-12-06T07:57:04.122Z,6.18
2022-12-06T07:59:49.768Z,6.07
2022-12-06T08:02:35.810Z,6.20
2022-12-06T08:05:22.764Z,5.82
2022-12-06T08:08:08.447Z,5.30
2022-12-06T08:10:54.394Z,4.88
2022-12-06T08:13:40.130Z,4.72
2022-12-06T08:16:26.219Z,4.30
2022-12-06T08:19:12.405Z,4.97
2022-12-06T08:21:59.587Z,19.42
2022-12-06T08:24:45.220Z,22.20
2022-12-06T08:27:30.828Z,13.13
2022-12-06T08:30:17.265Z,6.63
2022-12-06T08:33:02.964Z,5.15
2022-12-06T08:35:48.936Z,4.47
2022-12-06T08:38:36.423Z,5.05
2022-12-06T08:41:41.772Z,4.03
2022-12-06T08:44:28.821Z,4.13
2022-12-06T08:47:14.695Z,4.10
2022-12-06T08:50:00.782Z,4.05
2022-12-06T08:52:46.702Z,4.00
2022-12-06T08:55:33.982Z,4.22
2022-12-06T08:58:19.620Z,4.18
2022-12-06T09:01:11.835Z,4.40
2022-12-06T09:03:59.322Z,4.20
2022-12-06T09:06:46.414Z,4.88
2022-12-06T09:09:32.119Z,4.40
2022-12-06T09:12:19.216Z,3.90
2022-12-06T09:15:06.064Z,3.70
2022-12-06T09:17:52.126Z,3.85
2022-12-06T09:20:39.932Z,3.78
2022-12-06T09:23:25.850Z,4.30
2022-12-06T09:26:12.163Z,3.92
2022-12-06T09:28:59.740Z,3.10
2022-12-06T09:31:45.404Z,3.40
2022-12-06T09:34:31.537Z,3.30
2022-12-06T09:37:17.511Z,2.58
2022-12-06T09:40:11.891Z,2.40
2022-12-06T09:43:08.648Z,2.10
2022-12-06T09:46:14.824Z,2.40
2022-12-06T09:49:18.294Z,2.17
2022-12-06T09:52:22.358Z,1.90
2022-12-06T09:55:22.853Z,1.77
2022-12-06T09:58:18.615Z,2.40
2022-12-06T10:01:16.574Z,1.73
2022-12-06T10:04:21.453Z,1.88
2022-12-06T10:07:15.542Z,1.48
2022-12-06T10:10:11.905Z,1.50
2022-12-06T10:13:06.804Z,1.33
2022-12-06T10:16:05.076Z,1.20
2022-12-06T10:19:03.366Z,1.58
2022-12-06T10:22:01.358Z,1.42
2022-12-06T10:24:57.822Z,1.30
2022-12-06T10:27:50.252Z,1.73
2022-12-06T10:30:44.753Z,1.73
2022-12-06T10:33:38.567Z,1.50
2022-12-06T10:36:40.958Z,1.30
2022-12-06T10:39:31.981Z,1.40
2022-12-06T10:42:29.734Z,1.20
2022-12-06T10:45:42.295Z,1.30
2022-12-06T10:48:35.338Z,1.15
2022-12-06T10:51:26.477Z,1.20
2022-12-06T10:54:23.935Z,1.40
2022-12-06T10:57:16.924Z,1.08
2022-12-06T11:00:15.579Z,1.83
2022-12-06T11:03:11.132Z,1.67
2022-12-06T11:06:01.577Z,2.80
2022-12-06T11:08:52.004Z,3.00
2022-12-06T11:11:40.569Z,2.60
2022-12-06T11:14:33.134Z,2.30
2022-12-06T11:17:22.247Z,2.50
2022-12-06T11:20:21.370Z,1.60
2022-12-06T11:23:12.974Z,2.22
2022-12-06T11:26:18.136Z,2.30
2022-12-06T11:29:11.301Z,1.85
2022-12-06T11:32:01.499Z,2.10
2022-12-06T11:34:50.572Z,1.98
2022-12-06T11:37:41.449Z,2.05
2022-12-06T11:40:32.835Z,2.30
2022-12-06T11:43:24.252Z,1.88
2022-12-06T11:49:09.631Z,1.98
2022-12-06T11:51:57.746Z,2.33
2022-12-06T11:54:50.066Z,3.05
2022-12-06T11:57:40.895Z,2.55
2022-12-06T12:00:27.474Z,2.55
2022-12-06T12:03:28.553Z,2.92
2022-12-06T12:06:21.787Z,2.88
2022-12-06T12:09:19.494Z,2.80
2022-12-06T12:12:14.577Z,2.72
2022-12-06T12:15:00.667Z,2.95
2022-12-06T12:17:50.158Z,2.72
2022-12-06T12:20:39.689Z,3.50
2022-12-06T12:23:29.761Z,4.63
2022-12-06T12:26:18.173Z,2.97
2022-12-06T12:29:14.579Z,3.22
2022-12-06T12:32:09.489Z,2.83
2022-12-06T12:34:55.955Z,2.58
2022-12-06T12:37:43.782Z,2.60
2022-12-06T12:40:35.523Z,3.08
2022-12-06T12:43:23.392Z,3.17
2022-12-06T12:46:19.657Z,2.42
2022-12-06T12:49:23.358Z,2.20
2022-12-06T12:52:28.659Z,2.45
2022-12-06T12:55:18.958Z,2.83
2022-12-06T12:58:10.751Z,2.80
2022-12-06T13:01:03.113Z,3.20
2022-12-06T13:03:52.972Z,2.88
2022-12-06T13:06:47.243Z,2.65
2022-12-06T13:09:40.696Z,2.88
2022-12-06T13:12:30.943Z,2.60
2022-12-06T13:15:19.424Z,2.90
2022-12-06T13:18:11.497Z,2.38
2022-12-06T13:21:00.713Z,2.90
2022-12-06T13:23:48.388Z,2.47
2022-12-06T13:26:38.265Z,2.75
2022-12-06T13:29:32.421Z,3.40
2022-12-06T13:32:22.263Z,2.42
2022-12-06T13:35:18.961Z,2.60
2022-12-06T13:38:26.625Z,2.47
2022-12-06T13:41:14.514Z,2.45
2022-12-06T13:44:00.169Z,2.22
2022-12-06T13:46:47.258Z,2.47
2022-12-06T13:49:48.619Z,2.40
2022-12-06T13:53:02.298Z,1.83
2022-12-06T13:55:59.706Z,2.42
2022-12-06T13:58:54.416Z,2.95
2022-12-06T14:01:42.992Z,3.67
2022-12-06T14:07:33.847Z,2.40
2022-12-06T14:10:19.845Z,2.33
2022-12-06T14:13:05.409Z,2.80
2022-12-06T14:15:52.361Z,2.60
2022-12-06T14:18:41.960Z,2.50
2022-12-06T14:21:34.753Z,2.80
2022-12-06T14:24:26.298Z,2.97
2022-12-06T14:30:04.596Z,2.97
2022-12-06T14:32:52.455Z,3.58
2022-12-06T14:35:40.206Z,4.18
2022-12-06T14:38:29.084Z,3.03
2022-12-06T14:41:36.819Z,3.70
2022-12-06T14:44:28.743Z,3.90
2022-12-06T14:47:15.895Z,3.72
2022-12-06T14:50:21.281Z,3.10
2022-12-06T14:53:11.600Z,2.88
2022-12-06T14:56:02.130Z,2.93
2022-12-06T14:58:48.820Z,3.42
2022-12-06T15:01:34.685Z,3.38
2022-12-06T15:04:26.558Z,3.13
2022-12-06T15:07:48.010Z,3.17
2022-12-06T15:10:34.726Z,4.35
2022-12-06T15:13:23.303Z,4.85
2022-12-06T15:16:15.162Z,4.47
2022-12-06T15:19:01.432Z,4.60
2022-12-06T15:21:50.701Z,4.38
2022-12-06T15:24:36.740Z,3.78
2022-12-06T15:27:23.947Z,4.05
2022-12-06T15:30:13.472Z,3.78
2022-12-06T15:32:59.291Z,3.65
2022-12-06T15:35:45.357Z,4.00
2022-12-06T15:38:31.242Z,7.10
2022-12-06T15:41:18.487Z,4.22
2022-12-06T15:44:04.015Z,3.75
2022-12-06T15:46:51.378Z,3.92
2022-12-06T15:49:38.060Z,3.60
2022-12-06T15:52:24.315Z,4.07
2022-12-06T15:55:16.335Z,3.53
2022-12-06T15:58:02.203Z,4.00
2022-12-06T16:00:48.171Z,4.32
2022-12-06T16:03:35.706Z,4.50
2022-12-06T16:06:24.346Z,4.35
2022-12-06T16:09:10.688Z,4.32
2022-12-06T16:11:56.623Z,4.32
2022-12-06T16:14:42.495Z,4.55
2022-12-06T16:17:28.163Z,4.90
2022-12-06T16:20:30.879Z,4.25
2022-12-06T16:24:04.716Z,4.40
2022-12-06T16:26:44.771Z,4.70
2022-12-06T16:29:31.107Z,4.95
2022-12-06T16:32:16.640Z,4.82
2022-12-06T16:35:02.511Z,5.53
2022-12-06T16:37:49.742Z,5.53
2022-12-06T16:40:35.657Z,5.18
2022-12-06T16:43:21.779Z,4.97
2022-12-06T16:46:27.566Z,6.10
2022-12-06T16:49:44.756Z,5.32
2022-12-06T16:52:22.283Z,5.93
2022-12-06T16:55:10.276Z,6.28
2022-12-06T16:57:56.474Z,5.70
2022-12-06T17:00:42.286Z,6.22
2022-12-06T17:03:28.195Z,6.38
2022-12-06T17:06:14.017Z,6.10
2022-12-06T17:09:00.337Z,6.13
2022-12-06T17:12:02.867Z,7.10
2022-12-06T17:14:48.391Z,6.22
2022-12-06T17:17:33.945Z,6.75
2022-12-06T17:20:20.722Z,6.20
2022-12-06T17:23:06.542Z,5.57
2022-12-06T17:25:57.011Z,6.05
2022-12-06T17:28:44.467Z,5.93
2022-12-06T17:31:30.413Z,6.22
2022-12-06T17:34:16.918Z,6.03
2022-12-06T19:25:42.647Z,10.97
2022-12-06T19:31:14.371Z,11.40
2022-12-06T19:34:00.227Z,11.70
2022-12-06T19:39:32.031Z,13.05
2022-12-06T19:42:37.868Z,11.93
2022-12-06T19:45:24.268Z,13.80
2022-12-06T19:48:10.265Z,13.88
2022-12-06T19:50:56.357Z,15.05
2022-12-06T19:53:42.633Z,17.10
2022-12-06T19:56:28.850Z,15.30
2022-12-06T19:59:16.670Z,16.75
2022-12-06T20:26:18.407Z,14.90
2022-12-06T20:29:04.855Z,14.60
2022-12-06T20:31:52.463Z,15.70
2022-12-06T20:37:23.750Z,15.07
2022-12-06T20:40:10.829Z,17.45
2022-12-06T20:48:29.526Z,16.10
2022-12-06T20:51:18.550Z,15.35
2022-12-06T20:59:40.137Z,18.52
2022-12-06T21:05:19.009Z,17.38
2022-12-06T21:08:05.205Z,17.15
2022-12-06T21:11:21.145Z,16.52
2022-12-06T21:13:59.134Z,17.23
2022-12-06T21:16:45.589Z,18.10
2022-12-06T21:19:31.305Z,18.65
2022-12-06T21:25:14.045Z,18.73
2022-12-06T21:28:00.015Z,21.95
2022-12-06T21:30:49.987Z,19.50
2022-12-06T21:33:36.256Z,19.60
2022-12-06T21:36:22.610Z,19.92
2022-12-06T21:44:41.783Z,19.90
2022-12-06T21:47:27.387Z,20.02
2022-12-06T22:04:04.757Z,18.52
2022-12-06T22:06:50.799Z,15.82
2022-12-06T22:09:36.353Z,14.85
2022-12-06T22:12:23.469Z,16.23
2022-12-06T22:15:09.840Z,16.40
2022-12-06T22:17:55.711Z,17.80
2022-12-06T22:20:41.061Z,19.15
2022-12-06T22:23:26.964Z,20.08
2022-12-06T22:26:14.984Z,18.58
2022-12-06T22:29:02.181Z,19.30
2022-12-06T22:31:47.736Z,19.05
2022-12-06T22:34:34.035Z,19.27
2022-12-06T22:37:22.888Z,19.50
2022-12-06T22:40:11.770Z,20.23
2022-12-06T22:42:57.632Z,20.45
2022-12-06T22:45:44.866Z,20.30
2022-12-06T22:48:31.200Z,20.85
2022-12-06T22:51:19.966Z,20.95
2022-12-06T22:54:09.648Z,20.10
2022-12-06T22:56:56.874Z,19.55
2022-12-06T22:59:42.707Z,19.55
2022-12-06T23:02:30.307Z,19.25
2022-12-06T23:05:15.912Z,19.90
2022-12-06T23:08:01.924Z,19.35
2022-12-06T23:10:47.827Z,17.98
2022-12-06T23:13:34.606Z,16.85
2022-12-06T23:16:23.242Z,18.23
2022-12-06T23:19:11.194Z,19.75
2022-12-06T23:21:56.915Z,21.88
2022-12-06T23:24:42.522Z,22.58
2022-12-06T23:27:28.064Z,21.88
2022-12-06T23:30:14.082Z,21.05
2022-12-06T23:33:00.154Z,21.45
2022-12-06T23:35:47.378Z,19.55
2022-12-06T23:38:33.528Z,20.88
2022-12-06T23:41:21.028Z,21.27
2022-12-06T23:44:07.556Z,20.80
2022-12-06T23:46:53.771Z,20.80
2022-12-06T23:49:39.576Z,20.15
2022-12-06T23:52:27.033Z,19.65
2022-12-06T23:55:12.681Z,17.65
2022-12-06T23:57:58.588Z,19.25
